Strona główna
METAR-TAF:

METAR-TAF

Lotnisko :

Pieszczany, Słowacja

Port lotniczy Pieszczany

Szerokość geograficzna: 48-37-30N, Długość geograficzna: 017-49-43E, wysokość: 163 m

Aktualna obserwacja pogody

Raport powstał 22 minut temu, godzina 21:00 UTC
Wiatr 16 kt od północ
Temperatura -10°C
Wilgotność 56%
Ciśnienie 1023 hPa
Widzialność 10 km lub więcej

METAR: LZPP 252100Z AUTO 36016KT 9999 NCD M10/M17 Q1023

czas: 22:22 (21:22 UTC)

Prognoza

Raport powstał 4 godziny i 22 minut temu, godzina 17:00 UTC
Prognoza ważna od 25 godzina 18 UTC do 26 godzina 03 UTC
Wiatr 12 kt od północ
Widzialność 10 km lub więcej
Brak chmur poniżej 1500 m i brak chmur cumulonimbus

TAF: LZPP 251700Z 2518/2603 36012KT CAVOK

Obserwacja i prognoza pogody dla ponad 4000 lotnisk (raport METAR i TAF).

Dostępne stacje oznaczono żółtymi i czerwonymi punktami na mapie.

Najedź kursorem aby zobaczyć nazwę stacji.

Kliknij aby zobaczyć obserwacje i prognozy pogody.

Aby zmienić mapę: kliknij na zielony przycisk z czarnym krzyżykiem, aby powiększyć; na zielony przycisk z myślnikiem, aby pomniejszyć; na zielone strzałki, aby przejść do map sąsiednich.


METAR-TAF: